CST,Max TemperatureF,Mean TemperatureF,Min TemperatureF,Max Dew PointF,MeanDew PointF,Min DewpointF,Max Humidity, Mean Humidity, Min Humidity, Max Sea Level PressureIn, Mean Sea Level PressureIn, Min Sea Level PressureIn, Max VisibilityMiles, Mean VisibilityMiles, Min VisibilityMiles, Max Wind SpeedMPH, Mean Wind SpeedMPH, Max Gust SpeedMPH,PrecipitationIn, CloudCover, Events, WindDirDegrees
2014-1-1,16,14,12,15,12,9,95,92,88,30.21,30.18,30.15,10,7,2,21,13,28,0.00,7,Snow,28
2014-1-2,14,5,-4,10,4,-7,90,83,75,30.45,30.31,30.18,10,10,10,20,12,22,0.00,4,Snow,318
2014-1-3,21,8,-6,16,5,-9,92,82,69,30.43,30.19,29.85,10,10,0,22,7,30,0.00,1,Snow,161
2014-1-4,33,26,19,29,21,16,100,84,74,30.01,29.89,29.81,10,7,1,21,14,28,0.02,5,Snow,222
2014-1-5,20,6,-9,19,5,-16,98,84,68,30.26,30.10,29.99,7,2,1,26,18,37,0.00,6,Snow,331
2014-1-6,-7,-11,-15,-14,-18,-22,78,72,68,30.36,30.32,30.27,10,8,2,24,18,37,0.00,2,Snow,270
2014-1-7,9,0,-9,3,-5,-15,90,78,67,30.32,30.25,30.16,10,10,10,12,7,,0.00,4,,169
2014-1-8,11,6,0,5,2,-3,91,80,66,30.48,30.39,30.24,10,10,3,10,3,,0.00,4,,6
2014-1-9,28,18,8,28,15,2,100,89,73,30.47,30.29,30.10,10,6,2,9,6,,0.00,8,Snow,111
2014-1-10,38,33,28,38,34,29,100,100,100,30.09,29.78,29.50,10,2,0,13,8,20,0.67,8,Fog-Rain-Snow-Thunderstorm,150
2014-1-11,37,33,29,37,31,28,100,93,80,29.87,29.65,29.49,10,8,0,23,13,29,0.03,7,Fog,275
2014-1-12,45,36,26,36,31,26,100,85,62,29.87,29.70,29.56,10,9,5,17,9,23,0.00,0,,163
2014-1-13,41,34,26,36,31,27,100,89,75,29.81,29.68,29.56,10,10,7,21,8,26,0.00,1,,255
2014-1-14,34,26,19,34,25,15,100,86,71,30.02,29.82,29.64,10,10,1,32,14,41,0.00,7,Snow,253
2014-1-15,23,18,12,18,13,9,88,81,71,30.16,30.05,29.81,10,10,7,21,14,25,0.00,5,Snow,259
2014-1-16,38,24,10,33,24,6,97,85,72,29.83,29.66,29.56,10,9,1,28,15,33,0.00,8,Rain-Snow,249
2014-1-17,12,8,5,8,5,2,95,85,79,30.03,29.94,29.83,10,9,3,20,13,26,0.00,4,Snow,265
2014-1-18,26,16,5,25,16,3,98,91,75,29.98,29.79,29.58,10,8,1,20,7,22,0.00,6,Snow,133
2014-1-19,41,26,10,32,23,10,96,83,68,29.96,29.77,29.62,10,10,10,23,12,30,0.00,0,,226
2014-1-20,38,26,14,32,29,13,100,91,79,30.10,29.89,29.70,10,8,1,31,11,36,0.01,4,Snow,314
2014-1-21,13,6,0,12,-1,-6,94,76,65,30.39,30.27,30.12,10,9,1,28,15,32,0.01,3,Snow,323
2014-1-22,18,9,0,14,5,-8,93,80,70,30.35,30.08,29.98,10,8,0,25,12,32,0.00,7,Snow,255
2014-1-23,3,-2,-6,-4,-8,-12,87,76,69,30.68,30.58,30.35,10,10,10,20,14,26,0.00,0,,284
2014-1-24,32,14,-4,26,8,-8,86,69,58,30.57,30.03,29.55,10,10,5,34,14,41,0.00,4,Snow,205
2014-1-25,34,22,9,32,12,1,94,67,45,29.93,29.76,29.53,10,10,10,31,16,38,0.00,3,Snow,281
2014-1-26,40,22,4,32,20,-4,96,73,58,30.05,29.60,29.43,10,9,1,33,14,47,0.00,7,Rain-Snow,256
2014-1-27,4,0,-4,-1,-8,-10,82,69,59,30.48,30.34,30.06,10,10,5,28,18,37,0.00,4,Snow,297
2014-1-28,12,2,-7,1,-5,-10,86,73,57,30.48,30.38,30.26,10,10,10,16,5,21,0.00,1,,247
2014-1-29,30,15,0,13,6,-3,84,66,46,30.26,30.13,29.93,10,10,10,21,9,26,0.00,0,,197
2014-1-30,32,24,17,30,19,12,99,73,53,30.00,29.80,29.65,10,10,0,26,17,48,0.00,3,Snow,205
2014-1-31,17,14,11,16,12,6,96,87,75,30.18,30.09,30.00,10,6,1,14,8,18,0.02,7,Snow,352